Time;durP1;ratioP1;P1;durP2;ratioP2;P2;SDS_P1;SDS_P2;PMS_P1;PMS_P2;Temp;Humidity;BMP_temperature;BMP_pressure;BME280_temperature;BME280_humidity;BME280_pressure;Samples;Min_cycle;Max_cycle;Signal;HPM_P1;HPM_P2
2023/04/22 00:01:42;;;;;;;;;;;10.40;99.90;;;;;;5071762;28;20390;-70
2023/04/22 00:04:07;;;;;;;;;;;10.60;99.90;;;;;;5072421;28;19928;-71
2023/04/22 00:06:33;;;;;;;;;;;10.30;99.90;;;;;;5062605;28;20426;-71
2023/04/22 00:08:59;;;;;;;;;;;10.30;99.90;;;;;;5052475;28;20415;-71
2023/04/22 00:11:27;;;;;;;;;;;10.30;99.90;;;;;;5052725;28;19925;-71
2023/04/22 00:13:53;;;;;;;;;;;10.30;99.90;;;;;;5051481;28;19925;-71
2023/04/22 00:16:19;;;;;;;;;;;10.20;99.90;;;;;;5052183;28;19934;-71
2023/04/22 00:18:44;;;;;;;;;;;10.20;99.90;;;;;;5051953;28;20003;-71
2023/04/22 00:21:10;;;;;;;;;;;10.10;99.90;;;;;;5057716;28;20272;-70
2023/04/22 00:23:35;;;;;;;;;;;10.10;99.90;;;;;;5072164;28;19974;-69
2023/04/22 00:26:01;;;;;;;;;;;10.10;99.90;;;;;;5071821;28;20372;-70
2023/04/22 00:28:27;;;;;;;;;;;10.00;99.90;;;;;;5071518;28;19925;-69
2023/04/22 00:30:52;;;;;;;;;;;10.00;99.90;;;;;;5071620;28;20035;-69
2023/04/22 00:33:18;;;;;;;;;;;9.90;99.90;;;;;;5072100;28;19925;-69
2023/04/22 00:35:45;;;;;;;;;;;10.00;99.90;;;;;;5069439;28;20012;-69
2023/04/22 00:38:10;;;;;;;;;;;9.90;99.90;;;;;;5051822;28;20313;-69
2023/04/22 00:40:36;;;;;;;;;;;9.80;99.90;;;;;;5053332;28;19970;-70
2023/04/22 00:43:04;;;;;;;;;;;9.90;99.90;;;;;;5050548;28;19925;-69
2023/04/22 00:45:30;;;;;;;;;;;9.60;99.90;;;;;;5052106;28;19929;-69
2023/04/22 00:47:55;;;;;;;;;;;10.00;99.90;;;;;;5052692;28;19924;-70
2023/04/22 00:50:21;;;;;;;;;;;9.50;99.90;;;;;;5052355;28;19947;-70
2023/04/22 00:52:46;;;;;;;;;;;9.40;99.90;;;;;;5051613;28;20034;-69
2023/04/22 00:55:12;;;;;;;;;;;9.70;99.90;;;;;;5051628;28;19932;-69
2023/04/22 00:57:38;;;;;;;;;;;9.30;99.90;;;;;;5065114;28;19931;-70
2023/04/22 01:00:04;;;;;;;;;;;9.30;99.90;;;;;;5093043;28;19925;-69
2023/04/22 01:02:29;;;;;;;;;;;9.20;99.90;;;;;;5092967;28;19924;-70
2023/04/22 01:04:55;;;;;;;;;;;9.10;99.90;;;;;;5079404;28;19930;-70
2023/04/22 01:07:21;;;;;;;;;;;9.10;99.90;;;;;;5095075;28;20478;-70
2023/04/22 01:09:46;;;;;;;;;;;9.00;99.90;;;;;;5097932;28;19931;-69
2023/04/22 01:12:12;;;;;;;;;;;9.00;99.90;;;;;;5116407;28;19964;-69
2023/04/22 01:14:37;;;;;;;;;;;8.90;99.90;;;;;;5099002;28;19924;-69
2023/04/22 01:17:03;;;;;;;;;;;8.80;99.90;;;;;;5096581;28;20018;-70
2023/04/22 01:19:28;;;;;;;;;;;8.80;99.90;;;;;;5099301;28;20046;-70
2023/04/22 01:21:54;;;;;;;;;;;8.80;99.90;;;;;;5117255;28;19977;-70
2023/04/22 01:24:20;;;;;;;;;;;8.80;99.90;;;;;;5098244;28;20478;-70
2023/04/22 01:26:47;;;;;;;;;;;8.70;99.90;;;;;;5098753;28;19930;-70
2023/04/22 01:29:13;;;;;;;;;;;8.70;99.90;;;;;;5117026;28;20272;-69
2023/04/22 01:31:39;;;;;;;;;;;8.60;99.90;;;;;;5097628;28;19924;-70
2023/04/22 01:34:04;;;;;;;;;;;8.60;99.90;;;;;;5098379;28;19931;-70
2023/04/22 01:36:31;;;;;;;;;;;8.50;99.90;;;;;;5125845;27;19928;-69
2023/04/22 01:38:57;;;;;;;;;;;8.50;99.90;;;;;;5116173;28;20345;-69
2023/04/22 01:41:23;;;;;;;;;;;8.50;99.90;;;;;;5095790;28;19924;-69
2023/04/22 01:43:50;;;;;;;;;;;8.40;99.90;;;;;;5116829;28;20375;-70
2023/04/22 01:46:16;;;;;;;;;;;8.40;99.90;;;;;;5115974;28;19931;-69
2023/04/22 01:48:42;;;;;;;;;;;8.60;99.90;;;;;;5117036;28;19939;-69
2023/04/22 01:51:08;;;;;;;;;;;8.30;99.90;;;;;;5098514;28;19924;-70
2023/04/22 01:53:34;;;;;;;;;;;8.30;99.90;;;;;;5115360;28;19924;-69
2023/04/22 01:56:00;;;;;;;;;;;8.20;99.90;;;;;;5116528;28;19924;-69
2023/04/22 01:58:29;;;;;;;;;;;8.20;99.90;;;;;;5098288;28;19924;-69
2023/04/22 02:00:55;;;;;;;;;;;8.20;99.90;;;;;;5115690;28;19924;-69
2023/04/22 02:03:20;;;;;;;;;;;8.20;99.90;;;;;;5098189;28;19928;-69
2023/04/22 02:05:46;;;;;;;;;;;8.40;99.90;;;;;;5098248;28;19931;-69
2023/04/22 02:08:11;;;;;;;;;;;8.40;99.90;;;;;;5097424;28;19934;-69
2023/04/22 02:10:37;;;;;;;;;;;8.30;99.90;;;;;;5098097;28;20347;-70
2023/04/22 02:13:02;;;;;;;;;;;8.20;99.90;;;;;;5096988;28;19927;-69
2023/04/22 02:15:28;;;;;;;;;;;8.20;99.90;;;;;;5115810;28;19930;-70
2023/04/22 02:17:53;;;;;;;;;;;8.20;99.90;;;;;;5115887;28;19976;-69
2023/04/22 02:20:19;;;;;;;;;;;8.20;99.90;;;;;;5097563;28;20276;-69
2023/04/22 02:22:45;;;;;;;;;;;8.20;99.90;;;;;;5097061;28;19932;-69
2023/04/22 02:25:11;;;;;;;;;;;8.20;99.90;;;;;;5115826;28;20333;-69
2023/04/22 02:27:36;;;;;;;;;;;8.30;99.90;;;;;;5115363;28;19924;-70
2023/04/22 02:30:02;;;;;;;;;;;8.20;99.90;;;;;;5097583;28;19938;-69
2023/04/22 02:32:28;;;;;;;;;;;8.10;99.90;;;;;;5116318;28;19930;-70
2023/04/22 02:34:54;;;;;;;;;;;8.10;99.90;;;;;;5096726;28;20006;-70
2023/04/22 02:37:21;;;;;;;;;;;8.10;99.90;;;;;;5097948;28;20323;-70
2023/04/22 02:39:47;;;;;;;;;;;8.10;99.90;;;;;;5115817;28;19924;-70
2023/04/22 02:42:13;;;;;;;;;;;8.50;99.90;;;;;;5114917;28;20302;-70
2023/04/22 02:44:38;;;;;;;;;;;8.10;99.90;;;;;;5115827;28;19923;-70
2023/04/22 02:47:05;;;;;;;;;;;8.10;99.90;;;;;;5097715;28;19924;-70
2023/04/22 02:49:30;;;;;;;;;;;8.20;99.90;;;;;;5114613;28;19928;-71
2023/04/22 02:51:56;;;;;;;;;;;8.60;99.90;;;;;;5115572;28;19931;-70
2023/04/22 02:54:21;;;;;;;;;;;8.20;99.90;;;;;;5097677;28;20367;-70
2023/04/22 02:56:47;;;;;;;;;;;8.30;99.90;;;;;;5114773;28;20435;-70
2023/04/22 02:59:12;;;;;;;;;;;8.20;99.90;;;;;;5096869;28;19974;-70
2023/04/22 03:01:38;;;;;;;;;;;8.20;99.90;;;;;;5096884;28;19924;-70
2023/04/22 03:04:03;;;;;;;;;;;8.20;99.90;;;;;;5095959;28;19924;-70
2023/04/22 03:06:29;;;;;;;;;;;8.20;99.90;;;;;;5115245;28;19976;-71
2023/04/22 03:08:55;;;;;;;;;;;8.10;99.90;;;;;;5115193;28;20079;-70
2023/04/22 03:11:21;;;;;;;;;;;8.10;99.90;;;;;;5096579;28;20449;-70
2023/04/22 03:13:46;;;;;;;;;;;8.00;99.90;;;;;;5115196;28;19970;-70
2023/04/22 03:16:12;;;;;;;;;;;7.90;99.90;;;;;;5114965;28;19974;-70
2023/04/22 03:18:37;;;;;;;;;;;7.90;99.90;;;;;;5095870;28;20021;-70
2023/04/22 03:21:03;;;;;;;;;;;7.90;99.90;;;;;;5114940;28;19923;-70
2023/04/22 03:23:31;;;;;;;;;;;7.80;99.90;;;;;;5114836;28;20306;-70
2023/04/22 03:25:59;;;;;;;;;;;8.20;99.90;;;;;;5114161;28;19924;-70
2023/04/22 03:28:25;;;;;;;;;;;7.80;99.90;;;;;;5096462;28;19932;-70
2023/04/22 03:30:51;;;;;;;;;;;8.00;99.90;;;;;;5113342;28;19977;-71
2023/04/22 03:33:16;;;;;;;;;;;7.70;99.90;;;;;;5114281;28;19923;-70
2023/04/22 03:35:42;;;;;;;;;;;7.80;99.90;;;;;;5096548;28;19927;-70
2023/04/22 03:38:08;;;;;;;;;;;7.80;99.90;;;;;;5095759;28;19927;-70
2023/04/22 03:40:33;;;;;;;;;;;7.90;99.90;;;;;;5114678;28;20389;-70
2023/04/22 03:43:02;;;;;;;;;;;7.90;99.90;;;;;;5096096;28;19923;-70
2023/04/22 03:45:28;;;;;;;;;;;7.80;99.90;;;;;;5095896;28;20287;-70
2023/04/22 03:47:56;;;;;;;;;;;8.30;99.90;;;;;;5096211;28;19920;-70
2023/04/22 03:50:22;;;;;;;;;;;7.90;99.90;;;;;;5096404;28;20291;-70
2023/04/22 03:52:47;;;;;;;;;;;7.80;99.90;;;;;;5114071;28;19924;-70
2023/04/22 03:55:13;;;;;;;;;;;7.80;99.90;;;;;;5095802;28;19920;-70
2023/04/22 03:57:38;;;;;;;;;;;7.90;99.90;;;;;;5113530;28;19923;-70
2023/04/22 04:00:04;;;;;;;;;;;7.80;99.90;;;;;;5093219;28;19966;-70
2023/04/22 04:02:30;;;;;;;;;;;7.80;99.90;;;;;;5093721;28;19924;-70
2023/04/22 04:04:55;;;;;;;;;;;7.80;99.90;;;;;;5075569;28;20269;-70
2023/04/22 04:07:21;;;;;;;;;;;7.80;99.90;;;;;;5088647;28;19924;-70
2023/04/22 04:09:46;;;;;;;;;;;7.80;99.90;;;;;;5113896;28;19924;-70
2023/04/22 04:12:15;;;;;;;;;;;7.70;99.90;;;;;;5113708;28;20367;-70
2023/04/22 04:14:40;;;;;;;;;;;7.70;99.90;;;;;;5095011;28;19928;-70
2023/04/22 04:17:08;;;;;;;;;;;7.70;99.90;;;;;;5094755;28;19933;-77
2023/04/22 04:19:34;;;;;;;;;;;7.70;99.90;;;;;;5095586;28;20259;-73
2023/04/22 04:22:00;;;;;;;;;;;7.50;99.90;;;;;;5094453;28;19924;-73
2023/04/22 04:24:25;;;;;;;;;;;7.50;99.90;;;;;;5113875;28;20355;-76
2023/04/22 04:26:51;;;;;;;;;;;7.50;99.90;;;;;;5095193;28;21636;-76
2023/04/22 04:29:20;;;;;;;;;;;7.40;99.90;;;;;;5113221;28;19930;-74
2023/04/22 04:31:45;;;;;;;;;;;7.40;99.90;;;;;;5095576;28;19923;-74
2023/04/22 04:34:11;;;;;;;;;;;7.40;99.90;;;;;;5094305;28;19920;-74
2023/04/22 04:36:38;;;;;;;;;;;7.40;99.90;;;;;;5113123;28;20390;-73
2023/04/22 04:39:04;;;;;;;;;;;7.40;99.90;;;;;;5113069;28;19919;-73
2023/04/22 04:41:30;;;;;;;;;;;7.30;99.90;;;;;;5094355;28;19923;-73
2023/04/22 04:43:59;;;;;;;;;;;7.50;99.90;;;;;;5113295;28;19976;-73
2023/04/22 04:46:25;;;;;;;;;;;7.30;99.90;;;;;;5095417;28;20038;-73
2023/04/22 04:48:52;;;;;;;;;;;7.20;99.90;;;;;;5093693;28;20053;-73
2023/04/22 04:51:18;;;;;;;;;;;7.20;99.90;;;;;;5110966;28;20537;-73
2023/04/22 04:53:44;;;;;;;;;;;7.10;99.90;;;;;;5111455;28;19919;-74
2023/04/22 04:56:09;;;;;;;;;;;7.50;99.90;;;;;;5092258;28;19923;-74
2023/04/22 04:58:35;;;;;;;;;;;7.10;99.90;;;;;;5111408;28;19989;-74
2023/04/22 05:01:00;;;;;;;;;;;7.00;99.90;;;;;;5093001;28;19939;-74
2023/04/22 05:03:26;;;;;;;;;;;7.10;99.90;;;;;;5092473;28;19924;-74
2023/04/22 05:05:51;;;;;;;;;;;7.00;99.90;;;;;;5094438;28;19924;-74
2023/04/22 05:08:17;;;;;;;;;;;7.20;99.90;;;;;;5095415;28;19930;-73
2023/04/22 05:10:43;;;;;;;;;;;7.10;99.90;;;;;;5112305;28;19931;-74
2023/04/22 05:13:09;;;;;;;;;;;7.10;99.90;;;;;;5112806;28;20351;-74
2023/04/22 05:15:35;;;;;;;;;;;7.10;99.90;;;;;;5094854;28;20022;-73
2023/04/22 05:18:01;;;;;;;;;;;7.20;99.90;;;;;;5112091;28;19928;-74
2023/04/22 05:20:26;;;;;;;;;;;8.70;99.90;;;;;;5113307;28;20018;-74
2023/04/22 05:22:52;;;;;;;;;;;7.40;99.90;;;;;;5094578;28;19924;-74
2023/04/22 05:25:17;;;;;;;;;;;7.50;99.90;;;;;;5094013;28;19927;-73
2023/04/22 05:27:43;;;;;;;;;;;7.30;99.90;;;;;;5094484;28;20019;-73
2023/04/22 05:30:09;;;;;;;;;;;7.30;99.90;;;;;;5112611;28;19976;-74
2023/04/22 05:32:34;;;;;;;;;;;7.40;99.90;;;;;;5093339;28;19928;-73
2023/04/22 05:35:00;;;;;;;;;;;7.50;99.90;;;;;;5094118;28;20108;-74
2023/04/22 05:37:25;;;;;;;;;;;7.50;99.90;;;;;;5112510;28;20379;-73
2023/04/22 05:39:51;;;;;;;;;;;7.60;99.90;;;;;;5093800;28;20026;-74
2023/04/22 05:42:16;;;;;;;;;;;8.30;99.90;;;;;;5112677;28;20240;-74
2023/04/22 05:44:42;;;;;;;;;;;7.70;99.90;;;;;;5094307;28;19924;-74
2023/04/22 05:47:07;;;;;;;;;;;7.70;99.90;;;;;;5112378;28;20405;-74
2023/04/22 05:49:33;;;;;;;;;;;7.70;99.90;;;;;;5094963;28;19931;-74
2023/04/22 05:51:58;;;;;;;;;;;7.80;99.90;;;;;;5111580;28;19927;-74
2023/04/22 05:54:24;;;;;;;;;;;7.90;99.90;;;;;;5094538;28;19931;-75
2023/04/22 05:56:50;;;;;;;;;;;7.90;99.90;;;;;;5116083;28;19978;-73
2023/04/22 05:59:15;;;;;;;;;;;8.30;99.90;;;;;;5115297;28;19938;-74
2023/04/22 06:01:41;;;;;;;;;;;8.00;99.90;;;;;;5115909;28;19924;-74
2023/04/22 06:04:08;;;;;;;;;;;8.10;99.90;;;;;;5097326;28;19999;-75
2023/04/22 06:06:34;;;;;;;;;;;8.20;99.90;;;;;;5114827;28;20310;-74
2023/04/22 06:09:03;;;;;;;;;;;8.40;99.90;;;;;;5115951;28;19931;-74
2023/04/22 06:11:28;;;;;;;;;;;8.90;99.90;;;;;;5098133;28;20022;-74
2023/04/22 06:13:54;;;;;;;;;;;8.40;99.90;;;;;;5097071;28;19985;-74
2023/04/22 06:16:20;;;;;;;;;;;8.60;99.90;;;;;;5097290;28;20367;-74
2023/04/22 06:18:46;;;;;;;;;;;8.50;99.90;;;;;;5098651;28;20388;-74
2023/04/22 06:21:11;;;;;;;;;;;8.70;99.90;;;;;;5097006;28;19982;-74
2023/04/22 06:23:37;;;;;;;;;;;9.00;99.90;;;;;;5116417;28;19953;-75
2023/04/22 06:26:03;;;;;;;;;;;8.90;99.90;;;;;;5097038;28;19930;-75
2023/04/22 06:28:28;;;;;;;;;;;9.00;99.90;;;;;;5097077;28;20363;-73
2023/04/22 06:30:54;;;;;;;;;;;9.10;99.90;;;;;;5115376;28;20383;-75
2023/04/22 06:33:20;;;;;;;;;;;9.30;99.90;;;;;;5096996;28;19924;-75
2023/04/22 06:35:45;;;;;;;;;;;9.30;99.90;;;;;;5114757;28;20294;-74
2023/04/22 06:38:11;;;;;;;;;;;9.80;99.90;;;;;;5115805;28;19923;-73
2023/04/22 06:40:36;;;;;;;;;;;9.70;99.90;;;;;;5114980;28;19945;-74
2023/04/22 06:43:02;;;;;;;;;;;9.90;99.90;;;;;;5115518;28;19923;-74
2023/04/22 06:45:28;;;;;;;;;;;10.10;99.90;;;;;;5097059;28;20371;-74
2023/04/22 06:47:54;;;;;;;;;;;10.10;99.90;;;;;;5114317;28;19923;-74
2023/04/22 06:50:19;;;;;;;;;;;10.40;99.90;;;;;;5115834;28;19969;-75
2023/04/22 06:52:45;;;;;;;;;;;10.60;99.90;;;;;;5115471;28;20500;-73
2023/04/22 06:55:10;;;;;;;;;;;10.70;99.90;;;;;;5096346;28;19932;-74
2023/04/22 06:57:36;;;;;;;;;;;10.80;99.90;;;;;;5115305;28;19931;-73
2023/04/22 07:00:03;;;;;;;;;;;10.90;99.90;;;;;;5089667;28;20353;-74
2023/04/22 07:02:28;;;;;;;;;;;11.00;99.90;;;;;;5094579;27;19959;-73
2023/04/22 07:04:54;;;;;;;;;;;11.10;99.90;;;;;;5115955;27;19971;-73
2023/04/22 07:07:20;;;;;;;;;;;11.10;99.90;;;;;;5110791;27;20437;-73
2023/04/22 07:09:45;;;;;;;;;;;11.30;99.90;;;;;;5118923;27;19963;-73
2023/04/22 07:12:11;;;;;;;;;;;11.50;99.90;;;;;;5115496;27;19928;-72
2023/04/22 07:14:36;;;;;;;;;;;11.40;99.90;;;;;;5097138;28;20363;-72
2023/04/22 07:17:02;;;;;;;;;;;11.50;99.90;;;;;;5093846;27;20036;-72
2023/04/22 07:19:28;;;;;;;;;;;11.50;99.90;;;;;;5099835;28;19931;-72
2023/04/22 07:21:54;;;;;;;;;;;11.60;99.90;;;;;;5095727;28;19962;-73
2023/04/22 07:24:19;;;;;;;;;;;11.90;99.90;;;;;;5095875;28;19958;-73
2023/04/22 07:26:45;;;;;;;;;;;11.70;99.90;;;;;;5087639;28;19924;-74
2023/04/22 07:29:14;;;;;;;;;;;11.90;99.90;;;;;;5096117;28;20438;-71
2023/04/22 07:31:39;;;;;;;;;;;12.20;99.90;;;;;;5113791;28;19924;-76
2023/04/22 07:34:05;;;;;;;;;;;11.80;99.90;;;;;;5111505;28;19931;-72
2023/04/22 07:36:33;;;;;;;;;;;11.90;99.90;;;;;;5096227;28;19934;-73
2023/04/22 07:38:59;;;;;;;;;;;12.00;99.90;;;;;;5093668;28;19938;-76
2023/04/22 07:41:25;;;;;;;;;;;11.90;99.90;;;;;;5095142;28;19931;-75
2023/04/22 07:43:50;;;;;;;;;;;12.00;99.90;;;;;;5113344;28;20102;-75
2023/04/22 07:46:16;;;;;;;;;;;12.10;99.90;;;;;;5112000;28;20371;-77
2023/04/22 07:48:44;;;;;;;;;;;12.20;99.90;;;;;;5095454;28;20280;-77
2023/04/22 07:51:10;;;;;;;;;;;12.40;99.90;;;;;;5095178;28;20283;-78
2023/04/22 07:53:35;;;;;;;;;;;12.60;99.90;;;;;;5095452;28;19923;-77
2023/04/22 07:56:01;;;;;;;;;;;12.90;99.90;;;;;;5095626;28;19928;-71
2023/04/22 07:58:26;;;;;;;;;;;13.00;99.90;;;;;;5094396;28;19923;-74
2023/04/22 08:00:52;;;;;;;;;;;13.20;99.90;;;;;;5112344;28;20248;-75
2023/04/22 08:03:17;;;;;;;;;;;13.30;99.90;;;;;;5092413;28;19938;-75
2023/04/22 08:05:45;;;;;;;;;;;13.40;99.90;;;;;;5110068;28;21416;-76
2023/04/22 08:08:10;;;;;;;;;;;13.50;99.90;;;;;;5106206;28;20000;-79
2023/04/22 08:10:36;;;;;;;;;;;13.50;99.90;;;;;;5097498;28;20330;-73
2023/04/22 08:13:02;;;;;;;;;;;13.70;99.90;;;;;;5107597;28;20008;-73
2023/04/22 08:15:27;;;;;;;;;;;13.70;99.90;;;;;;5114091;28;19928;-73
2023/04/22 08:17:52;;;;;;;;;;;14.00;99.90;;;;;;5095030;28;19924;-72
2023/04/22 08:20:18;;;;;;;;;;;14.00;99.90;;;;;;5112680;28;19928;-72
2023/04/22 08:22:44;;;;;;;;;;;14.10;99.90;;;;;;5092355;28;20385;-73
2023/04/22 08:25:10;;;;;;;;;;;14.20;99.90;;;;;;5111125;28;19932;-71
2023/04/22 08:27:36;;;;;;;;;;;14.40;99.90;;;;;;5111586;28;20367;-71
2023/04/22 08:30:02;;;;;;;;;;;14.70;99.90;;;;;;5112956;28;19950;-71
2023/04/22 08:32:27;;;;;;;;;;;15.10;99.90;;;;;;5113044;28;19924;-72
2023/04/22 08:34:53;;;;;;;;;;;15.70;99.90;;;;;;5111130;28;20444;-72
2023/04/22 08:37:18;;;;;;;;;;;16.10;99.90;;;;;;5093706;28;19924;-72
2023/04/22 08:39:44;;;;;;;;;;;16.30;99.90;;;;;;5113069;28;20344;-73
2023/04/22 08:42:11;;;;;;;;;;;17.00;99.90;;;;;;5111984;28;20072;-73
2023/04/22 08:44:37;;;;;;;;;;;18.20;99.90;;;;;;5111924;28;20457;-73
2023/04/22 08:47:03;;;;;;;;;;;19.40;99.90;;;;;;5094438;28;19923;-73
2023/04/22 08:49:29;;;;;;;;;;;20.00;99.90;;;;;;5112244;28;19924;-70
2023/04/22 08:51:55;;;;;;;;;;;20.20;99.90;;;;;;5094686;28;19924;-72
2023/04/22 08:54:22;;;;;;;;;;;20.60;99.90;;;;;;5111254;28;19927;-72
2023/04/22 08:56:48;;;;;;;;;;;20.90;99.90;;;;;;5094162;28;19936;-72
2023/04/22 08:59:14;;;;;;;;;;;21.10;99.90;;;;;;5093707;28;19967;-71
2023/04/22 09:01:40;;;;;;;;;;;21.50;99.90;;;;;;5093934;28;20325;-72
2023/04/22 09:04:08;;;;;;;;;;;22.40;99.90;;;;;;5112368;28;19924;-72
2023/04/22 09:06:33;;;;;;;;;;;22.30;99.90;;;;;;5112393;28;19959;-72
2023/04/22 09:09:00;;;;;;;;;;;22.00;99.90;;;;;;5093163;28;19975;-72
2023/04/22 09:11:29;;;;;;;;;;;21.90;99.90;;;;;;5094456;28;20018;-71
2023/04/22 09:13:55;;;;;;;;;;;22.50;99.70;;;;;;5112625;28;19963;-72
2023/04/22 09:16:20;;;;;;;;;;;22.60;99.90;;;;;;5111973;28;19971;-72
2023/04/22 09:18:46;;;;;;;;;;;22.60;99.90;;;;;;5112311;28;20359;-72
2023/04/22 09:21:12;;;;;;;;;;;23.00;99.80;;;;;;5094219;28;20359;-71
2023/04/22 09:23:52;;;;;;;;;;;23.40;96.60;;;;;;5111772;28;20486;-72
2023/04/22 09:26:19;;;;;;;;;;;22.50;98.30;;;;;;5094191;28;19924;-72
2023/04/22 09:29:08;;;;;;;;;;;22.00;99.50;;;;;;5093969;28;19924;-72
2023/04/22 09:31:34;;;;;;;;;;;21.30;99.70;;;;;;5097333;28;20294;-71
2023/04/22 09:34:00;;;;;;;;;;;21.00;99.90;;;;;;5116205;28;19923;-72
2023/04/22 09:36:29;;;;;;;;;;;21.60;99.40;;;;;;5115912;28;19974;-72
2023/04/22 09:38:56;;;;;;;;;;;21.60;99.60;;;;;;5097070;28;19973;-71
2023/04/22 09:41:29;;;;;;;;;;;21.80;98.70;;;;;;5098157;28;19935;-70
2023/04/22 09:43:56;;;;;;;;;;;22.00;99.90;;;;;;5097396;28;19962;-71
2023/04/22 09:46:23;;;;;;;;;;;22.50;99.60;;;;;;5116212;28;19963;-71
2023/04/22 09:48:49;;;;;;;;;;;23.00;97.90;;;;;;5116038;28;19969;-71
2023/04/22 09:51:15;;;;;;;;;;;23.50;96.10;;;;;;5096976;28;20318;-71
2023/04/22 09:53:41;;;;;;;;;;;23.20;98.40;;;;;;5098208;28;19928;-71
2023/04/22 09:56:06;;;;;;;;;;;23.40;97.40;;;;;;5116494;28;19931;-71
2023/04/22 09:58:37;;;;;;;;;;;23.10;96.50;;;;;;5115496;28;19980;-71
2023/04/22 10:01:02;;;;;;;;;;;23.20;96.90;;;;;;5097703;28;19927;-71
2023/04/22 10:03:28;;;;;;;;;;;23.40;95.50;;;;;;5116664;28;19924;-71
2023/04/22 10:05:56;;;;;;;;;;;23.50;96.60;;;;;;5096868;28;19923;-71
2023/04/22 10:08:22;;;;;;;;;;;23.60;97.60;;;;;;5116190;28;19928;-71
2023/04/22 10:10:48;;;;;;;;;;;23.70;96.50;;;;;;5098091;28;19931;-71
2023/04/22 10:13:13;;;;;;;;;;;23.70;96.10;;;;;;5097374;28;19930;-71
2023/04/22 10:15:44;;;;;;;;;;;23.70;96.70;;;;;;5097540;28;19930;-71
2023/04/22 10:18:15;;;;;;;;;;;23.70;97.10;;;;;;5097992;28;20286;-70
2023/04/22 10:20:41;;;;;;;;;;;24.00;94.00;;;;;;5115419;28;19951;-71
2023/04/22 10:23:21;;;;;;;;;;;23.90;94.50;;;;;;5097462;28;19930;-73
2023/04/22 10:25:52;;;;;;;;;;;23.40;95.30;;;;;;5096856;28;19923;-73
2023/04/22 10:28:19;;;;;;;;;;;23.50;95.70;;;;;;5116385;28;20056;-72
2023/04/22 10:30:45;;;;;;;;;;;23.70;94.60;;;;;;5115850;28;19950;-73
2023/04/22 10:33:19;;;;;;;;;;;23.40;94.50;;;;;;5094559;28;19928;-74
2023/04/22 10:36:04;;;;;;;;;;;23.30;95.00;;;;;;5095115;28;19966;-70
2023/04/22 10:38:32;;;;;;;;;;;23.20;94.40;;;;;;5079881;28;19967;-70
2023/04/22 10:41:02;;;;;;;;;;;22.90;95.40;;;;;;5113518;28;19919;-71
2023/04/22 10:43:44;;;;;;;;;;;22.60;96.20;;;;;;5096711;28;20421;-71
2023/04/22 10:46:33;;;;;;;;;;;22.70;95.70;;;;;;5115155;28;19975;-72
2023/04/22 10:49:05;;;;;;;;;;;22.80;95.70;;;;;;5098297;28;20320;-74
2023/04/22 10:51:41;;;;;;;;;;;23.00;97.20;;;;;;5096536;28;19984;-74
2023/04/22 10:54:27;;;;;;;;;;;23.50;95.30;;;;;;5095684;28;20043;-73
2023/04/22 10:57:00;;;;;;;;;;;23.50;95.30;;;;;;5096632;28;20007;-80
2023/04/22 10:59:26;;;;;;;;;;;23.40;96.90;;;;;;5096231;28;19945;-76
2023/04/22 11:01:52;;;;;;;;;;;23.70;96.30;;;;;;5095546;28;19924;-79
2023/04/22 11:04:19;;;;;;;;;;;23.70;94.50;;;;;;5087658;28;19931;-78
2023/04/22 11:06:44;;;;;;;;;;;23.00;95.90;;;;;;5104896;28;20329;-74
2023/04/22 11:09:11;;;;;;;;;;;23.10;95.30;;;;;;5109086;28;19935;-73
2023/04/22 11:11:37;;;;;;;;;;;22.50;96.10;;;;;;5086031;28;20370;-75
2023/04/22 11:14:02;;;;;;;;;;;22.20;96.40;;;;;;5109167;28;19924;-72
2023/04/22 11:16:28;;;;;;;;;;;22.00;97.40;;;;;;5114268;28;20022;-73
2023/04/22 11:18:54;;;;;;;;;;;22.10;97.10;;;;;;5114799;28;19924;-76
2023/04/22 11:21:20;;;;;;;;;;;22.20;97.40;;;;;;5114512;28;19975;-75
2023/04/22 11:23:52;;;;;;;;;;;22.00;98.20;;;;;;5114492;28;19961;-76
2023/04/22 11:26:17;;;;;;;;;;;22.30;98.40;;;;;;5114503;28;19985;-74
2023/04/22 11:28:46;;;;;;;;;;;22.70;98.30;;;;;;5115090;28;20379;-75
2023/04/22 11:31:13;;;;;;;;;;;22.70;96.50;;;;;;5113627;28;20413;-75
2023/04/22 11:33:39;;;;;;;;;;;23.30;97.10;;;;;;5115041;28;20319;-74
2023/04/22 11:36:08;;;;;;;;;;;23.10;96.90;;;;;;5113079;28;19967;-74
2023/04/22 11:38:34;;;;;;;;;;;23.10;97.80;;;;;;5114949;28;19937;-79
2023/04/22 11:41:00;;;;;;;;;;;23.20;96.10;;;;;;5096145;28;19963;-77
2023/04/22 11:43:26;;;;;;;;;;;23.00;96.20;;;;;;5095350;28;19971;-76
2023/04/22 11:45:54;;;;;;;;;;;22.90;96.10;;;;;;5114057;28;19927;-78
2023/04/22 11:48:23;;;;;;;;;;;22.40;96.70;;;;;;5114043;28;19931;-75
2023/04/22 11:50:50;;;;;;;;;;;22.20;97.90;;;;;;5113647;28;20274;-75
2023/04/22 11:53:19;;;;;;;;;;;22.30;97.80;;;;;;5113420;28;20370;-77
2023/04/22 11:55:46;;;;;;;;;;;22.30;97.80;;;;;;5095614;28;19927;-76
2023/04/22 11:58:13;;;;;;;;;;;22.30;98.10;;;;;;5094943;28;19924;-74
2023/04/22 12:00:40;;;;;;;;;;;22.30;97.60;;;;;;5114567;28;19931;-79
2023/04/22 12:03:25;;;;;;;;;;;22.30;97.50;;;;;;5092686;28;19931;-76
2023/04/22 12:05:52;;;;;;;;;;;22.10;98.10;;;;;;5099155;28;19935;-77
2023/04/22 12:08:19;;;;;;;;;;;21.80;97.20;;;;;;5113966;28;19920;-77
2023/04/22 12:10:52;;;;;;;;;;;21.30;98.10;;;;;;5095452;28;20350;-77
2023/04/22 12:13:25;;;;;;;;;;;21.20;98.10;;;;;;5112783;28;19965;-76
2023/04/22 12:16:01;;;;;;;;;;;21.00;99.90;;;;;;5095408;28;19977;-76
2023/04/22 12:18:29;;;;;;;;;;;20.90;99.90;;;;;;5112245;28;19920;-76
2023/04/22 12:20:58;;;;;;;;;;;21.00;99.90;;;;;;5113281;28;19924;-78
2023/04/22 12:23:24;;;;;;;;;;;20.90;99.90;;;;;;5095193;28;19928;-75
2023/04/22 12:25:49;;;;;;;;;;;21.00;99.90;;;;;;5108279;28;19924;-75
2023/04/22 12:28:15;;;;;;;;;;;20.90;99.90;;;;;;5112095;28;20010;-76
2023/04/22 12:30:41;;;;;;;;;;;20.90;99.90;;;;;;5112853;28;19938;-77
2023/04/22 12:33:06;;;;;;;;;;;20.60;99.90;;;;;;5111629;28;19973;-77
2023/04/22 12:35:32;;;;;;;;;;;20.50;99.90;;;;;;5095468;28;19924;-77
2023/04/22 12:37:58;;;;;;;;;;;20.50;99.90;;;;;;5097979;28;19924;-77
2023/04/22 12:40:23;;;;;;;;;;;20.50;99.90;;;;;;5094379;28;19924;-76
2023/04/22 12:42:49;;;;;;;;;;;20.40;99.90;;;;;;5095082;28;20268;-77
2023/04/22 12:45:15;;;;;;;;;;;20.50;99.90;;;;;;5094922;28;19931;-77
2023/04/22 12:47:41;;;;;;;;;;;20.30;99.90;;;;;;5112474;28;20392;-78
2023/04/22 12:50:07;;;;;;;;;;;20.10;99.90;;;;;;5110542;28;20034;-78
2023/04/22 12:52:33;;;;;;;;;;;19.90;99.90;;;;;;5094429;28;20387;-78
2023/04/22 12:54:59;;;;;;;;;;;19.50;99.90;;;;;;5094052;28;19969;-78
2023/04/22 12:57:25;;;;;;;;;;;19.20;99.90;;;;;;5109740;28;19932;-78
2023/04/22 12:59:50;;;;;;;;;;;18.80;99.90;;;;;;5112463;28;20129;-78
2023/04/22 13:02:16;;;;;;;;;;;18.60;99.90;;;;;;5093375;28;19981;-79
2023/04/22 13:04:41;;;;;;;;;;;18.30;99.90;;;;;;5098141;28;19960;-78
2023/04/22 13:07:07;;;;;;;;;;;17.90;99.90;;;;;;5119192;28;19930;-79
2023/04/22 13:09:32;;;;;;;;;;;17.70;99.90;;;;;;5118750;28;19967;-79
2023/04/22 13:11:58;;;;;;;;;;;17.50;99.90;;;;;;5118761;28;19936;-78
2023/04/22 13:14:24;;;;;;;;;;;17.30;99.90;;;;;;5119541;28;19969;-79
2023/04/22 13:16:50;;;;;;;;;;;17.10;99.90;;;;;;5118458;28;19927;-80
2023/04/22 13:19:19;;;;;;;;;;;16.90;99.90;;;;;;5117928;28;19924;-80
2023/04/22 13:21:45;;;;;;;;;;;16.80;99.90;;;;;;5100335;28;19969;-80
2023/04/22 13:24:10;;;;;;;;;;;16.60;99.90;;;;;;5100588;28;19935;-79
2023/04/22 13:26:37;;;;;;;;;;;16.50;99.90;;;;;;5118602;28;19931;-81
2023/04/22 13:29:03;;;;;;;;;;;16.30;99.90;;;;;;5118078;28;19924;-81
2023/04/22 13:31:28;;;;;;;;;;;16.20;99.90;;;;;;5119422;28;19974;-80
2023/04/22 13:33:54;;;;;;;;;;;16.10;99.90;;;;;;5118432;28;19989;-80
2023/04/22 13:36:20;;;;;;;;;;;16.00;99.90;;;;;;5118531;28;20010;-80
2023/04/22 13:38:45;;;;;;;;;;;15.80;99.90;;;;;;5119117;28;19924;-79
2023/04/22 13:41:11;;;;;;;;;;;15.70;99.90;;;;;;5098952;28;19935;-79
2023/04/22 13:43:36;;;;;;;;;;;15.60;99.90;;;;;;5116891;28;20406;-80
2023/04/22 13:46:02;;;;;;;;;;;15.60;99.90;;;;;;5100453;28;19934;-81
2023/04/22 13:48:28;;;;;;;;;;;15.50;99.90;;;;;;5118410;28;19924;-81
2023/04/22 13:50:55;;;;;;;;;;;15.30;99.90;;;;;;5118338;28;19931;-82
2023/04/22 13:53:21;;;;;;;;;;;15.30;99.90;;;;;;5119057;28;19924;-81
2023/04/22 13:55:46;;;;;;;;;;;15.20;99.90;;;;;;5119106;28;19930;-81
2023/04/22 13:58:12;;;;;;;;;;;15.10;99.90;;;;;;5099462;28;20305;-79
2023/04/22 14:00:37;;;;;;;;;;;14.80;99.90;;;;;;5119313;28;19928;-79
2023/04/22 14:03:03;;;;;;;;;;;14.70;99.90;;;;;;5118348;28;19924;-78
2023/04/22 14:05:29;;;;;;;;;;;14.50;99.90;;;;;;5118172;28;19973;-78
2023/04/22 14:07:55;;;;;;;;;;;14.40;99.90;;;;;;5100400;28;19931;-79
2023/04/22 14:10:21;;;;;;;;;;;14.30;99.90;;;;;;5118888;28;19931;-79
2023/04/22 14:12:47;;;;;;;;;;;14.20;99.90;;;;;;5118221;28;19930;-78
2023/04/22 14:15:12;;;;;;;;;;;14.10;99.90;;;;;;5115852;28;20438;-75
2023/04/22 14:17:39;;;;;;;;;;;14.10;99.90;;;;;;5115527;28;19971;-81
2023/04/22 14:20:05;;;;;;;;;;;13.90;99.90;;;;;;5113768;28;20375;-78